Time;durP1;ratioP1;P1;durP2;ratioP2;P2;SDS_P1;SDS_P2;PMS_P1;PMS_P2;Temp;Humidity;BMP_temperature;BMP_pressure;BME280_temperature;BME280_humidity;BME280_pressure;Samples;Min_cycle;Max_cycle;Signal;HPM_P1;HPM_P2
2022/09/28 00:01:17;;;;;;;28.30;16.97;;;;;;;12.88;100.00;99290.19;1714654;83;21007;-38
2022/09/28 00:03:46;;;;;;;44.53;16.52;;;;;;;12.88;100.00;99286.73;1704438;83;21818;-38
2022/09/28 00:06:17;;;;;;;38.33;17.32;;;;;;;12.87;100.00;99295.00;1714791;83;20965;-38
2022/09/28 00:08:44;;;;;;;49.15;17.23;;;;;;;12.89;100.00;99296.23;1714704;83;21019;-38
2022/09/28 00:11:14;;;;;;;25.43;17.17;;;;;;;12.88;100.00;99290.19;1714827;83;21139;-38
2022/09/28 00:13:41;;;;;;;28.55;17.92;;;;;;;12.88;100.00;99286.73;1714913;82;20933;-38
2022/09/28 00:16:15;;;;;;;20.57;16.62;;;;;;;12.89;100.00;99281.95;1715338;83;20893;-38
2022/09/28 00:18:44;;;;;;;24.00;17.10;;;;;;;12.89;100.00;99281.48;1714649;83;20941;-38
2022/09/28 00:21:15;;;;;;;22.58;17.42;;;;;;;12.86;100.00;99280.33;1714840;82;20877;-38
2022/09/28 00:26:28;;;;;;;25.67;18.33;;;;;;;12.84;100.00;99293.84;1714968;83;21497;-38
2022/09/28 00:28:58;;;;;;;22.90;17.35;;;;;;;12.82;100.00;99295.67;1715011;82;20905;-38
2022/09/28 00:31:27;;;;;;;25.97;18.70;;;;;;;12.80;100.00;99293.61;1714633;83;20949;-38
2022/09/28 00:33:59;;;;;;;25.72;17.60;;;;;;;12.79;100.00;99290.63;1714645;83;20944;-38
2022/09/28 00:36:28;;;;;;;29.45;18.30;;;;;;;12.77;100.00;99290.67;1719214;82;21260;-38
2022/09/28 00:38:56;;;;;;;26.77;19.02;;;;;;;12.76;100.00;99292.06;1713075;83;20940;-38
2022/09/28 00:41:24;;;;;;;27.93;17.82;;;;;;;12.76;100.00;99288.17;1713290;83;20932;-38
2022/09/28 00:43:51;;;;;;;23.38;17.52;;;;;;;12.75;100.00;99298.14;1713450;83;21505;-38
2022/09/28 00:46:32;;;;;;;25.08;17.23;;;;;;;12.74;100.00;99292.13;1713133;83;21074;-38
2022/09/28 00:49:06;;;;;;;27.27;17.85;;;;;;;12.75;100.00;99290.35;1713205;83;21104;-38
2022/09/28 00:51:33;;;;;;;31.15;19.02;;;;;;;12.74;100.00;99288.23;1713123;83;20944;-38
2022/09/28 00:54:01;;;;;;;27.67;17.50;;;;;;;12.72;100.00;99280.97;1689376;83;21015;-38
2022/09/28 00:56:28;;;;;;;34.25;19.35;;;;;;;12.73;100.00;99283.95;1713069;83;20999;-39
2022/09/28 00:58:55;;;;;;;28.85;19.45;;;;;;;12.72;100.00;99281.41;1713407;83;21462;-38
2022/09/28 01:01:22;;;;;;;28.20;19.10;;;;;;;12.72;100.00;99281.41;1713253;83;21087;-39
2022/09/28 01:03:50;;;;;;;29.35;19.98;;;;;;;12.72;100.00;99282.70;1713190;83;21026;-38
2022/09/28 01:06:20;;;;;;;31.60;20.35;;;;;;;12.71;100.00;99285.77;1713220;83;20976;-39
2022/09/28 01:08:50;;;;;;;31.62;19.95;;;;;;;12.70;100.00;99285.83;1689453;83;20944;-39
2022/09/28 01:11:18;;;;;;;29.80;20.55;;;;;;;12.69;100.00;99282.85;1713165;83;21573;-38
2022/09/28 01:13:46;;;;;;;31.57;20.52;;;;;;;12.69;100.00;99283.70;1713244;83;21506;-39
2022/09/28 01:16:51;;;;;;;27.98;19.67;;;;;;;12.65;100.00;99276.51;1713067;83;21023;-38
2022/09/28 01:19:47;;;;;;;28.57;20.62;;;;;;;12.64;100.00;99278.72;1711514;83;20971;-39
2022/09/28 01:22:32;;;;;;;30.90;21.00;;;;;;;12.62;100.00;99275.35;1712865;83;21557;-38
2022/09/28 01:25:49;;;;;;;27.93;19.92;;;;;;;12.59;100.00;99265.55;1713119;83;21158;-38
2022/09/28 01:28:18;;;;;;;33.83;21.60;;;;;;;12.57;100.00;99264.34;1713398;83;22137;-38
2022/09/28 01:30:54;;;;;;;31.93;21.40;;;;;;;12.55;100.00;99255.79;1713163;82;20935;-38
2022/09/28 01:33:28;;;;;;;33.60;22.30;;;;;;;12.55;100.00;99256.23;1682122;83;21000;-39
2022/09/28 01:36:12;;;;;;;38.50;22.55;;;;;;;12.54;100.00;99257.14;1710222;83;20984;-38
2022/09/28 01:38:52;;;;;;;35.17;22.05;;;;;;;12.52;100.00;99254.63;1705766;82;21012;-38
2022/09/28 01:41:19;;;;;;;35.52;22.00;;;;;;;12.51;100.00;99252.95;1705759;84;21129;-38
2022/09/28 01:43:50;;;;;;;36.48;22.80;;;;;;;12.49;100.00;99249.55;1705525;84;21553;-39
2022/09/28 01:46:24;;;;;;;41.80;22.45;;;;;;;12.48;100.00;99243.98;1705682;84;21466;-38
2022/09/28 01:48:57;;;;;;;37.60;24.35;;;;;;;12.48;100.00;99255.22;1705720;84;21505;-38
2022/09/28 01:51:56;;;;;;;41.13;22.87;;;;;;;12.49;100.00;99262.53;1705786;84;20992;-38
2022/09/28 01:54:39;;;;;;;37.70;23.60;;;;;;;12.50;100.00;99264.22;1702616;84;21183;-38
2022/09/28 01:57:23;;;;;;;37.83;23.90;;;;;;;12.50;100.00;99272.00;1705894;84;20857;-38
2022/09/28 01:59:59;;;;;;;41.63;23.20;;;;;;;12.52;100.00;99278.44;1705670;82;20972;-38
2022/09/28 02:02:39;;;;;;;35.88;22.37;;;;;;;12.52;100.00;99288.81;1705844;84;20944;-39
2022/09/28 02:05:16;;;;;;;39.00;24.15;;;;;;;12.50;100.00;99296.22;1705818;84;20992;-39
2022/09/28 02:07:50;;;;;;;38.00;22.90;;;;;;;12.51;100.00;99300.97;1705775;84;20980;-38
2022/09/28 02:10:21;;;;;;;41.10;22.22;;;;;;;12.50;100.00;99299.25;1705138;84;21493;-38
2022/09/28 02:13:00;;;;;;;39.33;23.25;;;;;;;12.50;100.00;99305.73;1705946;84;20941;-38
2022/09/28 02:15:38;;;;;;;38.67;21.85;;;;;;;12.50;100.00;99309.63;1706028;84;20948;-39
2022/09/28 02:18:05;;;;;;;36.33;22.30;;;;;;;12.50;100.00;99310.94;1705913;84;20913;-38
2022/09/28 02:20:33;;;;;;;34.43;21.73;;;;;;;12.51;100.00;99307.45;1705844;84;21100;-39
2022/09/28 02:23:01;;;;;;;34.55;22.62;;;;;;;12.49;100.00;99310.55;1705788;84;20928;-39
2022/09/28 02:25:39;;;;;;;33.98;21.10;;;;;;;12.46;100.00;99308.95;1705778;84;21336;-39
2022/09/28 02:28:12;;;;;;;39.50;21.37;;;;;;;12.44;100.00;99306.02;1681042;84;21031;-38
2022/09/28 02:30:41;;;;;;;36.05;21.27;;;;;;;12.43;100.00;99309.53;1706254;84;20921;-39
2022/09/28 02:33:23;;;;;;;34.43;21.27;;;;;;;12.41;100.00;99313.95;1705808;84;21085;-38
2022/09/28 02:35:49;;;;;;;32.53;20.88;;;;;;;12.40;100.00;99323.50;1705734;83;20949;-39
2022/09/28 02:38:17;;;;;;;36.50;21.12;;;;;;;12.40;100.00;99330.43;1705825;84;20940;-38
2022/09/28 02:40:56;;;;;;;33.92;20.27;;;;;;;12.40;100.00;99330.43;1681773;84;21537;-39
2022/09/28 02:43:26;;;;;;;26.40;18.65;;;;;;;12.39;100.00;99327.02;1705577;84;21467;-38
2022/09/28 02:46:33;;;;;;;28.10;17.42;;;;;;;12.39;100.00;99327.45;1705824;84;21096;-38
2022/09/28 02:49:13;;;;;;;33.13;20.37;;;;;;;12.36;100.00;99332.30;1704435;84;20991;-38
2022/09/28 02:51:57;;;;;;;30.25;21.00;;;;;;;12.31;100.00;99331.23;1705703;84;20871;-38
2022/09/28 02:55:10;;;;;;;31.15;19.67;;;;;;;12.27;100.00;99328.39;1703622;84;21110;-38
2022/09/28 02:58:01;;;;;;;30.92;19.20;;;;;;;12.26;100.00;99329.30;1705940;84;20984;-39
2022/09/28 03:00:28;;;;;;;25.10;18.67;;;;;;;12.25;100.00;99332.80;1705729;84;22082;-37
2022/09/28 03:03:19;;;;;;;31.55;18.02;;;;;;;12.23;100.00;99329.41;1681748;84;21553;-37
2022/09/28 03:06:02;;;;;;;17.57;14.87;;;;;;;12.22;100.00;99330.31;1705584;84;20991;-37
2022/09/28 03:08:48;;;;;;;10.78;9.75;;;;;;;12.20;100.00;99332.98;1705131;84;20913;-37
2022/09/28 03:11:22;;;;;;;11.90;10.70;;;;;;;12.17;100.00;99330.97;1681654;84;21019;-37
2022/09/28 03:13:51;;;;;;;15.70;10.88;;;;;;;12.12;100.00;99325.14;1705673;84;20972;-37
2022/09/28 03:16:19;;;;;;;12.37;11.08;;;;;;;12.06;100.00;99328.83;1659066;84;21097;-37
2022/09/28 03:18:49;;;;;;;12.25;10.95;;;;;;;12.01;100.00;99323.86;1705677;84;20901;-37
2022/09/28 03:21:16;;;;;;;12.53;11.25;;;;;;;11.98;100.00;99318.75;1705729;84;21028;-37
2022/09/28 03:23:43;;;;;;;12.70;11.28;;;;;;;11.96;100.00;99332.23;1705782;84;20940;-37
2022/09/28 03:26:11;;;;;;;14.20;10.95;;;;;;;11.92;100.00;99329.39;1705923;84;21400;-37
2022/09/28 03:28:38;;;;;;;11.38;10.28;;;;;;;11.89;100.00;99331.67;1705603;84;20956;-38
2022/09/28 03:31:06;;;;;;;11.60;10.48;;;;;;;11.87;100.00;99328.73;1705679;84;20996;-37
2022/09/28 03:33:34;;;;;;;13.08;11.75;;;;;;;11.83;100.00;99326.72;1705673;84;21410;-38
2022/09/28 03:36:02;;;;;;;12.63;10.90;;;;;;;11.79;100.00;99317.39;1705571;83;21449;-38
2022/09/28 03:38:29;;;;;;;13.70;11.30;;;;;;;11.76;100.00;99320.11;1705330;84;21399;-38
2022/09/28 03:40:58;;;;;;;15.45;11.18;;;;;;;11.73;100.00;99331.44;1705095;83;20932;-38
2022/09/28 03:43:25;;;;;;;20.77;12.53;;;;;;;11.74;100.00;99331.00;1705316;83;21546;-38
2022/09/28 03:45:58;;;;;;;12.13;10.93;;;;;;;11.71;100.00;99329.36;1705044;84;21000;-38
2022/09/28 03:48:30;;;;;;;12.75;11.45;;;;;;;11.69;100.00;99336.36;1687083;84;21027;-38
2022/09/28 03:52:26;;;;;;;13.55;12.05;;;;;;;11.69;100.00;99341.55;1798324;79;23347;-37
2022/09/28 03:54:53;;;;;;;13.72;11.90;;;;;;;11.64;100.00;99348.23;1758116;81;20980;-37
2022/09/28 03:57:19;;;;;;;14.50;11.68;;;;;;;11.62;100.00;99353.94;1758108;81;21144;-38
2022/09/28 03:59:46;;;;;;;15.18;12.98;;;;;;;11.61;100.00;99357.88;1758090;80;21010;-37
2022/09/28 04:02:13;;;;;;;15.55;13.10;;;;;;;11.60;100.00;99357.02;1757979;81;21668;-38
2022/09/28 04:04:41;;;;;;;14.60;12.47;;;;;;;11.57;100.00;99345.48;1758032;81;20952;-38
2022/09/28 04:07:08;;;;;;;17.80;13.60;;;;;;;11.57;100.00;99343.36;1757970;81;20944;-38
2022/09/28 04:09:35;;;;;;;17.12;13.90;;;;;;;11.55;100.00;99344.70;1758006;81;21145;-38
2022/09/28 04:12:02;;;;;;;17.60;13.20;;;;;;;11.53;100.00;99350.40;1757925;81;20920;-38
2022/09/28 04:14:30;;;;;;;19.00;14.87;;;;;;;11.50;100.00;99350.09;1758081;81;20952;-38
2022/09/28 04:16:57;;;;;;;17.60;14.15;;;;;;;11.49;100.00;99343.66;1758070;81;20964;-38
2022/09/28 04:19:26;;;;;;;14.93;13.30;;;;;;;11.46;100.00;99337.30;1758041;81;20929;-38
2022/09/28 04:21:57;;;;;;;20.72;15.03;;;;;;;11.41;100.00;99328.88;1756889;81;21415;-38
2022/09/28 04:24:24;;;;;;;17.57;14.00;;;;;;;11.39;100.00;99331.98;1757972;81;20975;-38
2022/09/28 04:26:51;;;;;;;18.32;14.45;;;;;;;11.36;100.00;99337.65;1757977;81;20936;-38
2022/09/28 04:29:19;;;;;;;17.90;13.95;;;;;;;11.34;100.00;99326.51;1757879;81;21034;-38
2022/09/28 04:31:51;;;;;;;21.82;14.35;;;;;;;11.34;100.00;99330.86;1757081;81;20881;-38
2022/09/28 04:34:20;;;;;;;15.25;13.45;;;;;;;11.32;100.00;99337.85;1739373;81;21526;-38
2022/09/28 04:36:48;;;;;;;18.17;13.30;;;;;;;11.32;100.00;99340.45;1758003;81;21561;-38
2022/09/28 04:39:18;;;;;;;16.62;12.68;;;;;;;11.31;100.00;99353.00;1758314;81;20983;-38
2022/09/28 04:41:50;;;;;;;19.67;14.28;;;;;;;11.30;100.00;99356.50;1757865;81;20948;-38
2022/09/28 04:44:17;;;;;;;26.70;14.65;;;;;;;11.26;100.00;99364.83;1757977;81;20904;-38
2022/09/28 04:46:45;;;;;;;29.52;15.23;;;;;;;11.25;100.00;99363.61;1751885;81;21323;-38
2022/09/28 04:49:30;;;;;;;18.98;15.90;;;;;;;11.27;100.00;99365.69;1749638;82;20979;-39
2022/09/28 04:52:00;;;;;;;23.02;16.95;;;;;;;11.28;100.00;99372.56;1740267;81;21004;-39
2022/09/28 04:54:26;;;;;;;21.50;16.97;;;;;;;11.28;100.00;99372.56;1749678;81;21012;-39
2022/09/28 04:56:54;;;;;;;22.98;17.42;;;;;;;11.28;100.00;99372.56;1750655;82;20987;-39
2022/09/28 04:59:21;;;;;;;25.65;17.65;;;;;;;11.28;100.00;99379.03;1750480;82;21273;-39
2022/09/28 05:01:48;;;;;;;25.48;17.92;;;;;;;11.27;100.00;99384.66;1750359;82;20893;-39
2022/09/28 05:04:34;;;;;;;26.05;17.67;;;;;;;11.27;100.00;99382.53;1749916;82;20857;-39
2022/09/28 05:07:05;;;;;;;23.83;17.20;;;;;;;11.25;100.00;99387.75;1726658;82;20897;-39
2022/09/28 05:09:33;;;;;;;25.70;18.32;;;;;;;11.24;100.00;99391.69;1722842;82;20972;-39
2022/09/28 05:12:01;;;;;;;23.07;17.55;;;;;;;11.21;100.00;99392.20;1749970;82;21211;-39
2022/09/28 05:14:29;;;;;;;26.87;18.02;;;;;;;11.20;100.00;99380.62;1749970;81;21012;-39
2022/09/28 05:16:57;;;;;;;27.48;17.87;;;;;;;11.18;100.00;99389.73;1722511;82;21363;-39
2022/09/28 05:19:27;;;;;;;30.10;18.77;;;;;;;11.13;100.00;99387.77;1749908;82;20928;-39
2022/09/28 05:21:56;;;;;;;25.05;19.55;;;;;;;11.14;100.00;99392.05;1749285;82;20948;-39
2022/09/28 05:24:23;;;;;;;27.52;20.50;;;;;;;11.16;100.00;99393.30;1722164;82;21116;-39
2022/09/28 05:26:52;;;;;;;27.52;19.75;;;;;;;11.15;100.00;99395.03;1749978;82;21410;-39
2022/09/28 05:29:20;;;;;;;26.10;17.55;;;;;;;11.16;100.00;99388.12;1749711;81;20971;-39
2022/09/28 05:31:52;;;;;;;24.77;18.45;;;;;;;11.18;100.00;99386.31;1745891;82;21537;-39
2022/09/28 05:34:20;;;;;;;22.30;17.40;;;;;;;11.17;100.00;99390.63;1746950;82;21031;-39
2022/09/28 06:47:58;;;;;;;32.95;23.42;;;;;;;11.37;100.00;99392.92;1798360;78;22777;-38
2022/09/28 06:50:33;;;;;;;29.37;22.45;;;;;;;11.38;100.00;99400.25;1767417;80;21007;-39
2022/09/28 06:53:10;;;;;;;27.02;17.67;;;;;;;11.45;100.00;99396.05;1738293;82;21790;-39
2022/09/28 06:55:49;;;;;;;24.85;17.57;;;;;;;11.52;100.00;99391.94;1748287;82;20865;-39
2022/09/28 06:58:18;;;;;;;25.80;17.40;;;;;;;11.54;100.00;99398.73;1748208;82;21521;-38
2022/09/28 07:00:47;;;;;;;28.25;17.75;;;;;;;11.54;100.00;99390.13;1748194;82;20968;-38
2022/09/28 07:03:17;;;;;;;26.10;18.92;;;;;;;11.55;100.00;99393.11;1748099;82;21461;-38
2022/09/28 07:05:50;;;;;;;22.93;16.57;;;;;;;11.54;100.00;99388.37;1727532;81;21822;-38
2022/09/28 07:08:23;;;;;;;29.70;17.35;;;;;;;11.57;100.00;99386.95;1724885;82;21014;-38
2022/09/28 07:10:55;;;;;;;22.10;15.98;;;;;;;11.61;100.00;99392.39;1743755;81;20995;-38
2022/09/28 07:13:27;;;;;;;20.43;15.57;;;;;;;11.69;100.00;99402.47;1746084;81;21346;-38
2022/09/28 07:15:56;;;;;;;21.20;14.58;;;;;;;11.75;100.00;99402.24;1725911;82;20893;-39
2022/09/28 07:18:27;;;;;;;17.95;15.13;;;;;;;11.82;100.00;99402.81;1748305;82;20944;-39
2022/09/28 07:20:58;;;;;;;22.25;14.45;;;;;;;11.84;100.00;99404.89;1748129;81;20946;-38
2022/09/28 07:23:28;;;;;;;17.45;14.07;;;;;;;11.87;100.00;99398.75;1748097;82;21438;-39
2022/09/28 07:26:05;;;;;;;18.73;15.48;;;;;;;11.90;100.00;99401.22;1746321;81;21490;-38
2022/09/28 07:28:34;;;;;;;20.82;16.77;;;;;;;11.92;100.00;99400.70;1746615;81;20983;-38
2022/09/28 07:31:06;;;;;;;21.25;17.27;;;;;;;11.92;100.00;99404.15;1723812;82;21198;-37
2022/09/28 07:33:54;;;;;;;20.88;17.60;;;;;;;11.93;100.00;99407.13;1747244;81;20995;-39
2022/09/28 07:36:35;;;;;;;23.25;17.95;;;;;;;11.96;100.00;99410.03;1744383;82;20988;-39
2022/09/28 07:39:02;;;;;;;20.25;17.17;;;;;;;11.97;100.00;99414.31;1748208;82;20920;-39
2022/09/28 07:41:32;;;;;;;23.32;17.87;;;;;;;11.98;100.00;99417.30;1748241;82;21039;-38
2022/09/28 07:44:04;;;;;;;21.65;17.85;;;;;;;11.99;100.00;99416.39;1748064;82;21183;-39
2022/09/28 07:46:35;;;;;;;20.55;17.35;;;;;;;11.99;100.00;99416.86;1726881;82;21043;-39
2022/09/28 07:49:06;;;;;;;29.05;19.73;;;;;;;12.01;100.00;99413.34;1748159;81;21011;-39
2022/09/28 07:51:35;;;;;;;22.75;17.92;;;;;;;12.06;100.00;99402.31;1727590;82;20999;-39
2022/09/28 07:54:11;;;;;;;23.92;18.75;;;;;;;12.10;100.00;99406.91;1732947;82;21360;-38
2022/09/28 07:56:40;;;;;;;21.02;17.85;;;;;;;12.12;100.00;99419.35;1746786;81;21377;-39
2022/09/28 07:59:08;;;;;;;24.47;18.25;;;;;;;12.15;100.00;99420.55;1746217;82;20940;-39
2022/09/28 08:01:49;;;;;;;23.27;17.23;;;;;;;12.16;100.00;99422.67;1725130;82;20987;-39
2022/09/28 08:04:16;;;;;;;25.52;17.57;;;;;;;12.11;100.00;99430.64;1747595;82;20980;-39
2022/09/28 08:06:44;;;;;;;20.45;16.42;;;;;;;12.09;100.00;99427.73;1747496;82;20948;-39
2022/09/28 08:09:12;;;;;;;32.55;19.67;;;;;;;12.11;100.00;99422.03;1747428;82;21406;-38
2022/09/28 08:11:58;;;;;;;22.02;17.50;;;;;;;12.18;100.00;99422.16;1747435;82;21391;-38
2022/09/28 08:14:46;;;;;;;27.22;17.45;;;;;;;12.24;100.00;99414.11;1747497;82;20984;-40
2022/09/28 08:17:17;;;;;;;22.75;17.50;;;;;;;12.25;100.00;99418.42;1745620;82;21011;-39
2022/09/28 08:22:32;;;;;;;21.45;18.10;;;;;;;12.34;100.00;99434.03;1747784;81;21272;-39
2022/09/28 08:25:00;;;;;;;20.05;17.07;;;;;;;12.38;100.00;99430.42;1726795;82;21008;-38
2022/09/28 08:27:27;;;;;;;19.62;15.90;;;;;;;12.40;100.00;99428.61;1747521;82;20960;-38
2022/09/28 08:29:54;;;;;;;19.60;16.42;;;;;;;12.41;100.00;99439.38;1747437;82;20944;-38
2022/09/28 08:32:43;;;;;;;19.07;14.70;;;;;;;12.45;100.00;99437.47;1747752;82;21023;-39
2022/09/28 08:35:25;;;;;;;19.23;15.60;;;;;;;12.49;100.00;99437.73;1682178;82;21111;-38
2022/09/28 08:38:12;;;;;;;19.07;15.78;;;;;;;12.52;100.00;99432.88;1747428;81;20968;-39
2022/09/28 08:41:03;;;;;;;21.85;17.45;;;;;;;12.53;100.00;99434.12;1693180;82;21036;-39
2022/09/28 08:43:43;;;;;;;20.90;16.73;;;;;;;12.55;100.00;99432.73;1744700;82;20920;-38
2022/09/28 08:46:27;;;;;;;18.60;16.62;;;;;;;12.56;100.00;99429.23;1746197;82;20924;-38
2022/09/28 08:49:18;;;;;;;16.65;14.85;;;;;;;12.56;100.00;99431.83;1719883;82;21416;-38
2022/09/28 08:52:08;;;;;;;17.98;16.05;;;;;;;12.58;100.00;99439.95;1733231;82;20992;-39
2022/09/28 08:54:57;;;;;;;16.67;14.68;;;;;;;12.64;100.00;99433.19;1650911;85;21047;-38
2022/09/28 08:57:37;;;;;;;17.50;15.45;;;;;;;12.73;100.00;99428.05;1722154;82;20933;-39
2022/09/28 09:00:08;;;;;;;17.00;15.05;;;;;;;12.80;100.00;99429.94;1747443;82;20976;-37
2022/09/28 09:03:15;;;;;;;18.30;15.35;;;;;;;12.89;100.00;99428.22;1747765;82;21109;-37
2022/09/28 09:16:07;;;;;;;17.35;15.48;;;;;;;13.06;100.00;99424.03;1748385;80;20956;-38
2022/09/28 09:18:57;;;;;;;16.57;14.50;;;;;;;13.07;100.00;99421.81;1728111;82;21195;-39
2022/09/28 09:21:48;;;;;;;16.10;14.30;;;;;;;13.05;100.00;99423.17;1747826;81;21502;-39
2022/09/28 09:24:29;;;;;;;16.97;15.25;;;;;;;13.03;100.00;99418.98;1748972;82;21422;-39
2022/09/28 09:27:07;;;;;;;19.25;15.58;;;;;;;13.05;100.00;99425.77;1749304;82;20975;-39
2022/09/28 09:29:57;;;;;;;18.82;16.37;;;;;;;13.10;100.00;99426.88;1748957;81;21529;-38
2022/09/28 09:32:52;;;;;;;18.60;15.20;;;;;;;13.16;100.00;99416.19;1748699;81;21446;-38
2022/09/28 09:35:44;;;;;;;17.55;15.28;;;;;;;13.24;100.00;99413.25;1736268;81;21027;-38
2022/09/28 09:38:45;;;;;;;16.25;14.47;;;;;;;13.34;100.00;99411.89;1742601;82;21001;-38
2022/09/28 09:41:45;;;;;;;15.35;13.75;;;;;;;13.41;100.00;99412.93;1749137;82;20963;-39
2022/09/28 09:44:41;;;;;;;16.52;13.72;;;;;;;13.48;100.00;99414.35;1749540;81;20983;-39
2022/09/28 09:47:43;;;;;;;17.95;14.58;;;;;;;13.56;100.00;99414.00;1745750;82;21075;-38
2022/09/28 09:50:31;;;;;;;19.90;15.03;;;;;;;13.59;100.00;99419.05;1728529;82;20896;-39
2022/09/28 09:53:20;;;;;;;24.60;14.87;;;;;;;13.67;100.00;99417.39;1749166;81;21560;-38
2022/09/28 09:55:50;;;;;;;15.90;13.90;;;;;;;13.79;100.00;99417.64;1737716;82;20948;-38
2022/09/28 09:58:36;;;;;;;25.10;14.30;;;;;;;13.93;100.00;99413.51;1748852;81;21446;-38
2022/09/28 10:01:20;;;;;;;16.45;13.18;;;;;;;14.02;100.00;99415.67;1748901;82;21469;-38
2022/09/28 10:03:49;;;;;;;17.80;13.20;;;;;;;14.07;100.00;99418.03;1727747;82;20968;-38
2022/09/28 10:06:34;;;;;;;15.13;12.60;;;;;;;14.12;100.00;99417.81;1749026;81;20936;-38
2022/09/28 10:09:06;;;;;;;18.57;13.75;;;;;;;14.19;100.00;99421.34;1748979;81;21517;-38
2022/09/28 10:11:42;;;;;;;15.90;13.70;;;;;;;14.28;100.00;99410.08;1746271;81;21138;-39
2022/09/28 10:14:20;;;;;;;14.35;13.03;;;;;;;14.36;100.00;99404.02;1749153;81;21200;-39
2022/09/28 10:16:54;;;;;;;13.85;12.33;;;;;;;14.43;100.00;99409.31;1748314;81;20988;-38
2022/09/28 10:19:32;;;;;;;14.20;12.65;;;;;;;14.48;100.00;99421.63;1713541;81;21402;-39
2022/09/28 10:22:19;;;;;;;14.33;12.82;;;;;;;14.51;100.00;99425.81;1726468;82;20952;-39
2022/09/28 10:24:48;;;;;;;15.18;12.73;;;;;;;14.53;100.00;99424.00;1749044;82;20991;-38
2022/09/28 10:27:31;;;;;;;15.50;12.25;;;;;;;14.52;100.00;99427.50;1749234;81;21121;-39
2022/09/28 10:30:22;;;;;;;20.55;12.47;;;;;;;14.49;100.00;99423.75;1749009;81;20889;-39
2022/09/28 10:32:54;;;;;;;13.13;11.43;;;;;;;14.45;100.00;99414.42;1728253;82;20957;-39
2022/09/28 10:35:26;;;;;;;13.70;11.68;;;;;;;14.44;100.00;99417.95;1749084;82;20872;-39
2022/09/28 10:38:06;;;;;;;18.75;13.00;;;;;;;14.43;100.00;99418.87;1748385;82;21487;-39
2022/09/28 10:40:54;;;;;;;17.17;12.23;;;;;;;14.37;100.00;99427.38;1748304;81;22082;-39
2022/09/28 10:43:33;;;;;;;14.53;12.73;;;;;;;14.36;100.00;99429.59;1747620;81;21446;-39
2022/09/28 10:46:12;;;;;;;20.62;12.93;;;;;;;14.36;100.00;99428.30;1749010;81;20936;-39
2022/09/28 10:48:59;;;;;;;12.90;11.57;;;;;;;14.38;100.00;99419.09;1749124;82;20972;-39
2022/09/28 10:51:58;;;;;;;13.13;11.83;;;;;;;14.38;100.00;99426.91;1749108;82;20987;-38
2022/09/28 10:54:28;;;;;;;13.75;12.35;;;;;;;14.34;100.00;99436.64;1735603;81;22021;-39
2022/09/28 10:56:57;;;;;;;12.70;11.50;;;;;;;14.35;100.00;99430.52;1748886;81;21497;-39
2022/09/28 10:59:36;;;;;;;14.63;12.63;;;;;;;14.41;100.00;99436.33;1748459;81;21003;-39
2022/09/28 11:02:25;;;;;;;13.80;12.37;;;;;;;14.40;100.00;99429.44;1717780;81;20999;-39
2022/09/28 11:04:56;;;;;;;17.07;13.38;;;;;;;14.44;100.00;99430.96;1749211;82;20897;-39
2022/09/28 11:07:27;;;;;;;19.00;14.25;;;;;;;14.43;100.00;99434.48;1748947;82;21137;-39
2022/09/28 11:09:55;;;;;;;15.75;14.07;;;;;;;14.41;100.00;99435.03;1749297;82;20944;-39
2022/09/28 11:12:25;;;;;;;18.12;14.13;;;;;;;14.41;100.00;99429.37;1748867;82;21501;-39
2022/09/28 11:15:00;;;;;;;19.10;14.60;;;;;;;14.43;100.00;99421.02;1748674;82;20983;-39
2022/09/28 11:17:31;;;;;;;17.87;13.93;;;;;;;14.47;100.00;99419.09;1749090;81;21003;-39
2022/09/28 11:20:02;;;;;;;15.20;13.60;;;;;;;14.44;100.00;99420.10;1748861;82;21149;-38
2022/09/28 11:22:43;;;;;;;20.32;13.62;;;;;;;14.42;100.00;99424.99;1748874;81;20940;-38
2022/09/28 11:25:18;;;;;;;16.80;12.98;;;;;;;14.39;100.00;99431.19;1748254;81;20980;-38
2022/09/28 11:27:56;;;;;;;21.87;14.05;;;;;;;14.35;100.00;99438.33;1728894;82;20904;-38
2022/09/28 11:30:40;;;;;;;39.95;14.93;;;;;;;14.27;100.00;99431.34;1748784;82;20988;-38
2022/09/28 11:33:40;;;;;;;16.97;13.70;;;;;;;14.19;100.00;99436.09;1748448;81;21280;-38
2022/09/28 11:36:34;;;;;;;15.93;14.03;;;;;;;14.12;100.00;99438.16;1748963;81;20918;-39
2022/09/28 11:39:48;;;;;;;18.10;14.18;;;;;;;14.07;100.00;99438.41;1711195;81;20999;-38
2022/09/28 11:42:48;;;;;;;17.67;13.13;;;;;;;14.06;100.00;99436.72;1749113;81;20940;-39
2022/09/28 11:45:56;;;;;;;16.00;13.32;;;;;;;14.14;100.00;99434.19;1748726;82;20976;-39
2022/09/28 11:48:26;;;;;;;20.97;12.35;;;;;;;14.22;100.00;99429.44;1749159;81;21221;-38
2022/09/28 11:51:05;;;;;;;17.92;12.85;;;;;;;14.30;100.00;99426.01;1749217;82;20943;-38
2022/09/28 11:53:42;;;;;;;17.95;13.60;;;;;;;14.32;100.00;99425.47;1749450;81;20901;-38
2022/09/28 11:56:26;;;;;;;14.85;13.30;;;;;;;14.33;100.00;99420.65;1751194;81;21558;-38
2022/09/28 11:59:04;;;;;;;16.23;12.68;;;;;;;14.36;100.00;99420.93;1749310;81;20971;-39
2022/09/28 12:01:44;;;;;;;15.40;13.80;;;;;;;14.40;100.00;99426.84;1747853;81;21505;-38
2022/09/28 12:04:36;;;;;;;13.68;12.33;;;;;;;14.47;100.00;99428.20;1749190;81;20940;-39
2022/09/28 12:07:10;;;;;;;18.65;12.90;;;;;;;14.53;100.00;99429.21;1728146;81;21046;-39
2022/09/28 12:10:01;;;;;;;15.45;13.03;;;;;;;14.57;100.00;99423.36;1749250;82;21502;-38
2022/09/28 12:13:00;;;;;;;14.93;13.38;;;;;;;14.65;100.00;99416.84;1751342;81;20940;-39
2022/09/28 12:15:54;;;;;;;15.90;13.90;;;;;;;14.76;100.00;99418.06;1748941;82;22394;-39
2022/09/28 12:18:26;;;;;;;16.37;13.08;;;;;;;14.80;100.00;99419.62;1749052;81;21015;-38
2022/09/28 12:21:10;;;;;;;16.00;13.58;;;;;;;14.88;100.00;99412.23;1728105;82;21003;-39
2022/09/28 12:23:37;;;;;;;16.70;13.48;;;;;;;14.94;100.00;99421.02;1748296;82;21519;-39
2022/09/28 12:26:15;;;;;;;15.68;13.93;;;;;;;14.94;100.00;99427.52;1748934;81;20971;-38
2022/09/28 12:28:46;;;;;;;16.20;13.45;;;;;;;14.97;100.00;99434.80;1748549;82;21173;-39
2022/09/28 12:31:19;;;;;;;19.52;12.68;;;;;;;14.99;100.00;99444.67;1749114;82;20984;-39
2022/09/28 12:33:47;;;;;;;14.70;13.10;;;;;;;14.98;100.00;99449.51;1728154;81;20904;-38
2022/09/28 12:36:29;;;;;;;17.67;14.13;;;;;;;14.92;100.00;99450.22;1749075;81;20948;-39
2022/09/28 12:39:04;;;;;;;16.17;14.20;;;;;;;14.89;100.00;99457.34;1749101;82;20880;-38
2022/09/28 12:42:10;;;;;;;14.70;13.15;;;;;;;14.85;100.00;99457.98;1748733;81;21272;-38
2022/09/28 12:45:08;;;;;;;18.35;13.43;;;;;;;14.86;100.00;99461.41;1748187;82;20940;-38
2022/09/28 12:48:08;;;;;;;15.23;13.62;;;;;;;14.84;100.00;99458.05;1748952;81;20932;-38
2022/09/28 12:50:53;;;;;;;15.38;13.85;;;;;;;14.75;100.00;99456.76;1749134;81;20944;-39
2022/09/28 12:53:40;;;;;;;15.75;13.05;;;;;;;14.65;100.00;99452.00;1748244;82;20927;-39
2022/09/28 12:56:43;;;;;;;18.50;14.23;;;;;;;14.55;100.00;99461.66;1749160;82;21233;-38
2022/09/28 12:59:33;;;;;;;14.90;13.30;;;;;;;14.32;100.00;99465.81;1748538;81;20947;-39
2022/09/28 13:02:26;;;;;;;16.85;14.30;;;;;;;14.10;100.00;99459.98;1749024;81;21516;-39
2022/09/28 13:05:13;;;;;;;23.18;14.28;;;;;;;14.06;100.00;99457.53;1749053;82;21493;-39
2022/09/28 13:08:02;;;;;;;18.05;15.40;;;;;;;14.04;100.00;99452.87;1749061;82;20976;-39
2022/09/28 13:10:43;;;;;;;21.02;16.62;;;;;;;14.01;100.00;99455.59;1749136;81;21106;-39
2022/09/28 13:13:55;;;;;;;19.27;16.65;;;;;;;13.99;100.00;99452.70;1748879;81;20983;-38
2022/09/28 13:16:48;;;;;;;20.95;17.00;;;;;;;13.97;100.00;99450.63;1748949;82;21022;-39
2022/09/28 13:19:35;;;;;;;21.95;18.05;;;;;;;13.97;100.00;99459.27;1749167;82;20983;-39
2022/09/28 13:22:36;;;;;;;23.50;17.32;;;;;;;13.96;100.00;99465.39;1752142;81;20924;-39